createdAt,value
2024-01-30T00:00:30.275Z,10.90
2024-01-30T00:05:32.531Z,10.90
2024-01-30T00:10:34.794Z,10.90
2024-01-30T00:15:37.032Z,10.90
2024-01-30T00:20:39.316Z,10.90
2024-01-30T00:25:41.610Z,10.80
2024-01-30T00:30:43.792Z,10.80
2024-01-30T00:35:45.935Z,10.80
2024-01-30T00:40:48.127Z,10.70
2024-01-30T00:45:50.410Z,10.60
2024-01-30T00:50:52.617Z,10.60
2024-01-30T00:55:54.907Z,10.60
2024-01-30T01:00:57.180Z,10.60
2024-01-30T01:05:59.661Z,10.50
2024-01-30T01:11:01.848Z,10.50
2024-01-30T01:16:05.187Z,10.50
2024-01-30T01:21:07.494Z,10.40
2024-01-30T01:26:11.018Z,10.40
2024-01-30T01:31:13.313Z,10.40
2024-01-30T01:36:15.591Z,10.30
2024-01-30T01:41:18.010Z,10.30
2024-01-30T01:46:20.370Z,10.30
2024-01-30T01:51:23.382Z,10.20
2024-01-30T01:56:26.953Z,10.20
2024-01-30T02:01:30.222Z,10.20
2024-01-30T02:06:33.279Z,10.10
2024-01-30T02:11:35.977Z,10.10
2024-01-30T02:16:39.043Z,10.10
2024-01-30T02:21:41.343Z,10.10
2024-01-30T02:26:43.668Z,10.10
2024-01-30T02:31:47.151Z,10.00
2024-01-30T02:36:49.549Z,10.00
2024-01-30T02:41:51.773Z,10.00
2024-01-30T02:46:55.547Z,10.00
2024-01-30T02:51:58.132Z,10.00
2024-01-30T02:57:00.373Z,10.00
2024-01-30T03:02:03.007Z,10.00
2024-01-30T03:07:05.489Z,10.00
2024-01-30T03:12:10.343Z,10.00
2024-01-30T03:17:13.477Z,10.00
2024-01-30T03:22:15.734Z,10.00
2024-01-30T03:27:17.886Z,10.00
2024-01-30T03:32:20.045Z,10.00
2024-01-30T03:37:22.238Z,9.90
2024-01-30T03:42:24.616Z,9.90
2024-01-30T03:47:26.917Z,9.90
2024-01-30T03:52:29.078Z,9.90
2024-01-30T03:57:31.339Z,9.90
2024-01-30T04:02:33.530Z,9.80
2024-01-30T04:07:35.833Z,9.80
2024-01-30T04:12:38.047Z,9.80
2024-01-30T04:17:40.831Z,9.80
2024-01-30T04:22:46.788Z,9.80
2024-01-30T04:27:49.580Z,9.70
2024-01-30T04:32:51.850Z,9.70
2024-01-30T04:37:54.529Z,9.70
2024-01-30T04:42:56.803Z,9.70
2024-01-30T04:47:58.960Z,9.70
2024-01-30T04:53:01.071Z,9.70
2024-01-30T04:58:03.456Z,9.70
2024-01-30T05:03:05.911Z,9.70
2024-01-30T05:08:08.093Z,9.70
2024-01-30T05:13:10.297Z,9.70
2024-01-30T05:18:12.529Z,9.70
2024-01-30T05:23:15.171Z,9.70
2024-01-30T05:28:17.388Z,9.60
2024-01-30T05:33:19.684Z,9.60
2024-01-30T05:38:21.989Z,9.60
2024-01-30T05:43:24.264Z,9.60
2024-01-30T05:48:26.405Z,9.60
2024-01-30T05:53:28.577Z,9.60
2024-01-30T05:58:32.211Z,9.50
2024-01-30T06:03:34.323Z,9.50
2024-01-30T06:08:36.619Z,9.50
2024-01-30T06:13:38.819Z,9.50
2024-01-30T06:18:41.025Z,9.50
2024-01-30T06:23:43.189Z,9.50
2024-01-30T06:28:45.608Z,9.50
2024-01-30T06:33:51.940Z,9.50
2024-01-30T06:38:54.129Z,9.50
2024-01-30T06:43:56.260Z,9.50
2024-01-30T06:48:58.389Z,9.50
2024-01-30T06:54:00.437Z,9.50
2024-01-30T06:59:04.449Z,9.50
2024-01-30T07:04:06.768Z,9.50
2024-01-30T07:09:09.708Z,9.50
2024-01-30T07:14:11.877Z,9.50
2024-01-30T07:19:14.050Z,9.50
2024-01-30T07:24:16.168Z,9.50
2024-01-30T07:29:18.779Z,9.40
2024-01-30T07:34:21.149Z,9.50
2024-01-30T07:39:23.403Z,9.50
2024-01-30T07:44:26.073Z,9.50
2024-01-30T07:49:28.764Z,9.40
2024-01-30T07:54:52.680Z,9.50
2024-01-30T08:00:30.656Z,9.50
2024-01-30T08:05:33.214Z,9.40
2024-01-30T08:10:35.616Z,9.40
2024-01-30T08:15:37.864Z,9.50
2024-01-30T08:20:40.081Z,9.50
2024-01-30T08:25:42.329Z,9.50
2024-01-30T08:30:44.566Z,9.50
2024-01-30T08:35:46.695Z,9.50
2024-01-30T08:40:48.801Z,9.50
2024-01-30T08:45:50.973Z,9.50
2024-01-30T08:50:53.302Z,9.50
2024-01-30T08:55:55.420Z,9.50
2024-01-30T09:00:57.619Z,9.50
2024-01-30T09:05:59.782Z,9.50
2024-01-30T09:11:01.871Z,9.60
2024-01-30T09:16:04.203Z,9.60
2024-01-30T09:21:06.549Z,9.60
2024-01-30T09:26:08.905Z,9.60
2024-01-30T09:31:11.827Z,9.60
2024-01-30T09:36:16.292Z,9.60
2024-01-30T09:41:20.240Z,9.70
2024-01-30T09:46:24.129Z,9.70
2024-01-30T09:51:27.711Z,9.80
2024-01-30T09:56:30.322Z,9.80
2024-01-30T10:01:35.359Z,9.90
2024-01-30T10:06:38.419Z,10.00
2024-01-30T10:11:40.614Z,10.10
2024-01-30T10:16:42.903Z,10.10
2024-01-30T10:21:45.357Z,10.20
2024-01-30T10:26:48.179Z,10.30
2024-01-30T10:32:03.961Z,10.30
2024-01-30T10:37:16.175Z,10.30
2024-01-30T10:42:25.328Z,10.40
2024-01-30T10:47:28.868Z,10.40
2024-01-30T10:52:32.686Z,10.40
2024-01-30T10:57:39.074Z,10.40
2024-01-30T11:02:46.115Z,10.40
2024-01-30T11:07:48.365Z,10.40
2024-01-30T11:12:52.793Z,10.30
2024-01-30T11:17:55.307Z,10.30
2024-01-30T11:22:58.626Z,10.30
2024-01-30T11:28:01.091Z,10.30
2024-01-30T11:33:10.337Z,10.30
2024-01-30T11:38:16.056Z,10.30
2024-01-30T11:43:19.041Z,10.30
2024-01-30T11:48:21.764Z,10.30
2024-01-30T11:53:24.334Z,10.30
2024-01-30T11:58:27.491Z,10.40
2024-01-30T12:03:30.112Z,10.40
2024-01-30T12:08:32.332Z,10.40
2024-01-30T12:13:34.823Z,10.50
2024-01-30T12:18:37.200Z,10.50
2024-01-30T12:23:39.621Z,10.50
2024-01-30T12:28:51.565Z,10.50
2024-01-30T12:33:54.232Z,10.50
2024-01-30T12:38:57.823Z,10.40
2024-01-30T12:44:01.982Z,10.50
2024-01-30T12:49:04.385Z,10.50
2024-01-30T12:54:07.578Z,10.40
2024-01-30T12:59:10.029Z,10.50
2024-01-30T13:04:13.074Z,10.50
2024-01-30T13:09:15.905Z,10.50
2024-01-30T13:14:18.443Z,10.50
2024-01-30T13:19:20.749Z,10.50
2024-01-30T13:24:23.119Z,10.50
2024-01-30T13:29:25.205Z,10.50
2024-01-30T13:34:27.320Z,10.50
2024-01-30T13:39:33.649Z,10.60
2024-01-30T13:44:38.627Z,10.60
2024-01-30T13:49:41.089Z,10.60
2024-01-30T13:54:43.254Z,10.60
2024-01-30T13:59:46.077Z,10.60
2024-01-30T14:04:48.304Z,10.60
2024-01-30T14:09:50.513Z,10.70
2024-01-30T14:14:52.628Z,10.70
2024-01-30T14:19:54.793Z,10.70
2024-01-30T14:24:57.643Z,10.70
2024-01-30T14:29:59.897Z,10.70
2024-01-30T14:35:02.085Z,10.70
2024-01-30T14:40:04.880Z,10.70
2024-01-30T14:45:08.078Z,10.70
2024-01-30T14:50:10.204Z,10.60
2024-01-30T14:55:12.412Z,10.60
2024-01-30T15:00:15.592Z,10.60
2024-01-30T15:05:18.089Z,10.60
2024-01-30T15:10:20.441Z,10.60
2024-01-30T15:15:23.005Z,10.60
2024-01-30T15:20:25.422Z,10.60
2024-01-30T15:25:27.619Z,10.60
2024-01-30T15:30:29.751Z,10.60
2024-01-30T15:35:31.998Z,10.60
2024-01-30T15:40:34.225Z,10.60
2024-01-30T15:45:36.379Z,10.60
2024-01-30T15:50:38.848Z,10.60
2024-01-30T15:55:41.086Z,10.60
2024-01-30T16:00:43.420Z,10.60
2024-01-30T16:05:45.679Z,10.60
2024-01-30T16:10:47.769Z,10.60
2024-01-30T16:15:49.955Z,10.50
2024-01-30T16:20:52.168Z,10.50
2024-01-30T16:25:55.200Z,10.40
2024-01-30T16:30:58.993Z,10.40
2024-01-30T16:36:01.940Z,10.40
2024-01-30T16:41:05.123Z,10.30
2024-01-30T16:46:09.412Z,10.30
2024-01-30T16:51:11.637Z,10.20
2024-01-30T16:56:13.795Z,10.20
2024-01-30T17:01:15.959Z,10.20
2024-01-30T17:06:18.202Z,10.10
2024-01-30T17:11:20.372Z,10.10
2024-01-30T17:16:22.942Z,10.00
2024-01-30T17:21:26.042Z,10.00
2024-01-30T17:26:28.517Z,10.00
2024-01-30T17:31:30.810Z,9.90
2024-01-30T17:36:33.015Z,9.90
2024-01-30T17:41:37.097Z,9.80
2024-01-30T17:46:39.274Z,9.80
2024-01-30T17:51:41.530Z,9.80
2024-01-30T17:56:43.685Z,9.80
2024-01-30T18:01:49.068Z,9.80
2024-01-30T18:06:51.979Z,9.70
2024-01-30T18:11:54.260Z,9.70
2024-01-30T18:16:56.362Z,9.70
2024-01-30T18:21:58.581Z,9.70
2024-01-30T18:27:00.756Z,9.70
2024-01-30T18:32:03.095Z,9.70
2024-01-30T18:37:05.390Z,9.70
2024-01-30T18:42:07.571Z,9.70
2024-01-30T18:47:09.671Z,9.70
2024-01-30T18:52:11.810Z,9.70
2024-01-30T18:57:14.239Z,9.60
2024-01-30T19:02:17.087Z,9.60
2024-01-30T19:07:20.550Z,9.60
2024-01-30T19:12:23.175Z,9.60
2024-01-30T19:17:25.500Z,9.60
2024-01-30T19:22:27.680Z,9.60
2024-01-30T19:27:29.855Z,9.60
2024-01-30T19:32:31.973Z,9.60
2024-01-30T19:37:36.370Z,9.60
2024-01-30T19:42:38.614Z,9.50
2024-01-30T19:47:40.745Z,9.50
2024-01-30T19:52:44.571Z,9.50
2024-01-30T19:57:46.718Z,9.50
2024-01-30T20:02:49.091Z,9.40
2024-01-30T20:07:51.390Z,9.40
2024-01-30T20:12:54.983Z,9.40
2024-01-30T20:17:57.201Z,9.30
2024-01-30T20:22:59.310Z,9.30
2024-01-30T20:28:01.397Z,9.20
2024-01-30T20:33:03.801Z,9.20
2024-01-30T20:38:05.919Z,9.20
2024-01-30T20:43:08.151Z,9.20
2024-01-30T20:48:10.448Z,9.20
2024-01-30T20:53:13.202Z,9.10
2024-01-30T20:58:16.020Z,9.00
2024-01-30T21:03:18.187Z,9.00
2024-01-30T21:08:20.371Z,8.90
2024-01-30T21:13:23.134Z,8.90
2024-01-30T21:18:25.567Z,8.80
2024-01-30T21:23:27.678Z,8.80
2024-01-30T21:28:31.016Z,8.70
2024-01-30T21:33:34.428Z,8.70
2024-01-30T21:38:36.590Z,8.60
2024-01-30T21:43:38.897Z,8.50
2024-01-30T21:48:41.894Z,8.50
2024-01-30T21:53:44.204Z,8.40
2024-01-30T21:58:46.533Z,8.40
2024-01-30T22:03:50.926Z,8.40
2024-01-30T22:08:53.111Z,8.30
2024-01-30T22:13:55.444Z,8.30
2024-01-30T22:18:57.542Z,8.20
2024-01-30T22:23:59.766Z,8.20
2024-01-30T22:29:02.237Z,8.10
2024-01-30T22:34:04.607Z,8.10
2024-01-30T22:39:11.803Z,8.10
2024-01-30T22:44:13.870Z,8.00
2024-01-30T22:49:15.984Z,8.00
2024-01-30T22:54:18.843Z,8.00
2024-01-30T22:59:21.033Z,8.00
2024-01-30T23:04:23.281Z,8.00
2024-01-30T23:09:25.452Z,8.00
2024-01-30T23:14:28.477Z,8.00
2024-01-30T23:19:30.600Z,8.00
2024-01-30T23:24:32.786Z,8.00
2024-01-30T23:29:34.956Z,8.00
2024-01-30T23:34:37.489Z,8.00
2024-01-30T23:39:40.884Z,7.90
2024-01-30T23:44:42.995Z,7.90
2024-01-30T23:49:47.304Z,7.90
2024-01-30T23:54:49.505Z,7.80
2024-01-30T23:59:51.654Z,7.80
